Stumpy Point, North Carolina
Current Conditions -  °F | °C
As of 7:43 PM on Tuesday 25 Nov 2014 (Local Time) from K2DP Reporting Station
Overcast Overcast  
Wind Chill: 61°   Ceiling: 600
Heat Index: 61°   Visibility: 10mi
Dew Point: 59°   Wind: 5mph
Humidity: 94%   Direction: 120°ESE
Pressure: 30.1"   Gusts: NA
Location:  35.7°N, 75.74°W
Report Text: K2DP 260043Z AUTO 12004KT 10SM OVC006 16/15 A3010 RMK AO2 CIG 006V008
Loading
Personal Weather Stations






























Interactive Weather Map New forecast layout! Learn more

10-Day Weather Forecast

Advertisements
Track Severe Weather on mobile